sensor_id;sensor_type;location;lat;lon;timestamp;P1;durP1;ratioP1;P2;durP2;ratioP2
9657;SDS011;4867;48.112;11.622;2023-01-28T00:01:24;30.33;;;21.00;;
9657;SDS011;4867;48.112;11.622;2023-01-28T00:03:51;28.40;;;21.33;;
9657;SDS011;4867;48.112;11.622;2023-01-28T00:06:19;28.90;;;21.03;;
9657;SDS011;4867;48.112;11.622;2023-01-28T00:08:46;27.90;;;20.40;;
9657;SDS011;4867;48.112;11.622;2023-01-28T00:11:14;27.53;;;20.40;;
9657;SDS011;4867;48.112;11.622;2023-01-28T00:13:41;30.20;;;21.63;;
9657;SDS011;4867;48.112;11.622;2023-01-28T00:16:09;28.20;;;21.17;;
9657;SDS011;4867;48.112;11.622;2023-01-28T00:18:36;27.73;;;21.27;;
9657;SDS011;4867;48.112;11.622;2023-01-28T00:21:09;28.30;;;21.60;;
9657;SDS011;4867;48.112;11.622;2023-01-28T00:23:39;27.63;;;21.27;;
9657;SDS011;4867;48.112;11.622;2023-01-28T00:26:08;31.13;;;22.47;;
9657;SDS011;4867;48.112;11.622;2023-01-28T00:28:41;30.67;;;21.53;;
9657;SDS011;4867;48.112;11.622;2023-01-28T00:31:11;29.63;;;22.17;;
9657;SDS011;4867;48.112;11.622;2023-01-28T00:33:43;26.87;;;21.07;;
9657;SDS011;4867;48.112;11.622;2023-01-28T00:36:12;29.23;;;21.63;;
9657;SDS011;4867;48.112;11.622;2023-01-28T00:38:41;28.40;;;21.53;;
9657;SDS011;4867;48.112;11.622;2023-01-28T00:41:09;27.30;;;21.83;;
9657;SDS011;4867;48.112;11.622;2023-01-28T00:43:38;27.37;;;20.67;;
9657;SDS011;4867;48.112;11.622;2023-01-28T00:46:08;28.07;;;21.60;;
9657;SDS011;4867;48.112;11.622;2023-01-28T00:48:37;28.90;;;21.73;;
9657;SDS011;4867;48.112;11.622;2023-01-28T00:51:06;29.73;;;21.53;;
9657;SDS011;4867;48.112;11.622;2023-01-28T00:53:34;29.93;;;22.37;;
9657;SDS011;4867;48.112;11.622;2023-01-28T00:56:05;28.63;;;21.73;;
9657;SDS011;4867;48.112;11.622;2023-01-28T00:58:34;27.77;;;21.10;;
9657;SDS011;4867;48.112;11.622;2023-01-28T01:01:10;27.50;;;21.20;;
9657;SDS011;4867;48.112;11.622;2023-01-28T01:03:52;28.03;;;21.80;;
9657;SDS011;4867;48.112;11.622;2023-01-28T01:06:31;26.37;;;21.37;;
9657;SDS011;4867;48.112;11.622;2023-01-28T01:09:01;26.67;;;20.17;;
9657;SDS011;4867;48.112;11.622;2023-01-28T01:11:29;27.73;;;21.00;;
9657;SDS011;4867;48.112;11.622;2023-01-28T01:13:57;27.53;;;21.47;;
9657;SDS011;4867;48.112;11.622;2023-01-28T01:16:26;26.13;;;19.73;;
9657;SDS011;4867;48.112;11.622;2023-01-28T01:18:55;29.77;;;22.17;;
9657;SDS011;4867;48.112;11.622;2023-01-28T01:21:23;27.90;;;21.97;;
9657;SDS011;4867;48.112;11.622;2023-01-28T01:23:52;28.43;;;21.07;;
9657;SDS011;4867;48.112;11.622;2023-01-28T01:26:20;27.67;;;21.70;;
9657;SDS011;4867;48.112;11.622;2023-01-28T01:28:49;29.40;;;22.20;;
9657;SDS011;4867;48.112;11.622;2023-01-28T01:31:18;29.00;;;21.53;;
9657;SDS011;4867;48.112;11.622;2023-01-28T01:33:47;28.30;;;21.03;;
9657;SDS011;4867;48.112;11.622;2023-01-28T01:36:16;28.70;;;20.87;;
9657;SDS011;4867;48.112;11.622;2023-01-28T01:38:46;26.67;;;21.03;;
9657;SDS011;4867;48.112;11.622;2023-01-28T01:44:00;28.03;;;21.70;;
9657;SDS011;4867;48.112;11.622;2023-01-28T01:46:35;27.90;;;20.63;;
9657;SDS011;4867;48.112;11.622;2023-01-28T01:49:12;26.30;;;20.17;;
9657;SDS011;4867;48.112;11.622;2023-01-28T01:51:54;30.10;;;22.33;;
9657;SDS011;4867;48.112;11.622;2023-01-28T01:54:36;28.63;;;22.20;;
9657;SDS011;4867;48.112;11.622;2023-01-28T01:57:07;26.23;;;20.37;;
9657;SDS011;4867;48.112;11.622;2023-01-28T01:59:38;27.83;;;21.77;;
9657;SDS011;4867;48.112;11.622;2023-01-28T02:02:08;28.43;;;22.33;;
9657;SDS011;4867;48.112;11.622;2023-01-28T02:04:41;27.77;;;21.17;;
9657;SDS011;4867;48.112;11.622;2023-01-28T02:07:15;27.33;;;20.77;;
9657;SDS011;4867;48.112;11.622;2023-01-28T02:09:44;28.13;;;20.60;;
9657;SDS011;4867;48.112;11.622;2023-01-28T02:12:12;28.10;;;20.50;;
9657;SDS011;4867;48.112;11.622;2023-01-28T02:14:47;26.87;;;20.60;;
9657;SDS011;4867;48.112;11.622;2023-01-28T02:17:19;28.80;;;22.10;;
9657;SDS011;4867;48.112;11.622;2023-01-28T02:19:53;25.70;;;19.93;;
9657;SDS011;4867;48.112;11.622;2023-01-28T02:27:49;26.00;;;20.23;;
9657;SDS011;4867;48.112;11.622;2023-01-28T02:30:26;27.03;;;20.23;;
9657;SDS011;4867;48.112;11.622;2023-01-28T02:32:59;24.47;;;19.97;;
9657;SDS011;4867;48.112;11.622;2023-01-28T02:35:36;25.93;;;19.47;;
9657;SDS011;4867;48.112;11.622;2023-01-28T02:38:15;24.37;;;19.10;;
9657;SDS011;4867;48.112;11.622;2023-01-28T02:40:49;24.10;;;18.97;;
9657;SDS011;4867;48.112;11.622;2023-01-28T02:43:32;25.53;;;19.80;;
9657;SDS011;4867;48.112;11.622;2023-01-28T02:49:06;25.60;;;19.97;;
9657;SDS011;4867;48.112;11.622;2023-01-28T02:51:56;25.97;;;20.10;;
9657;SDS011;4867;48.112;11.622;2023-01-28T03:00:55;27.17;;;20.70;;
9657;SDS011;4867;48.112;11.622;2023-01-28T03:03:36;24.30;;;19.33;;
9657;SDS011;4867;48.112;11.622;2023-01-28T03:06:23;26.70;;;20.10;;
9657;SDS011;4867;48.112;11.622;2023-01-28T03:09:14;25.63;;;20.33;;
9657;SDS011;4867;48.112;11.622;2023-01-28T03:14:55;27.47;;;21.57;;
9657;SDS011;4867;48.112;11.622;2023-01-28T03:21:04;24.30;;;19.50;;
9657;SDS011;4867;48.112;11.622;2023-01-28T03:24:34;26.73;;;20.70;;
9657;SDS011;4867;48.112;11.622;2023-01-28T03:27:23;27.27;;;20.60;;
9657;SDS011;4867;48.112;11.622;2023-01-28T03:30:19;23.67;;;18.50;;
9657;SDS011;4867;48.112;11.622;2023-01-28T03:33:20;25.67;;;19.90;;
9657;SDS011;4867;48.112;11.622;2023-01-28T03:36:07;24.93;;;19.77;;
9657;SDS011;4867;48.112;11.622;2023-01-28T03:38:54;24.63;;;19.53;;
9657;SDS011;4867;48.112;11.622;2023-01-28T03:41:23;27.70;;;20.30;;
9657;SDS011;4867;48.112;11.622;2023-01-28T03:43:53;24.50;;;19.73;;
9657;SDS011;4867;48.112;11.622;2023-01-28T03:46:21;23.90;;;18.90;;
9657;SDS011;4867;48.112;11.622;2023-01-28T03:48:49;25.57;;;19.53;;
9657;SDS011;4867;48.112;11.622;2023-01-28T03:51:16;26.07;;;19.90;;
9657;SDS011;4867;48.112;11.622;2023-01-28T03:53:44;26.00;;;20.37;;
9657;SDS011;4867;48.112;11.622;2023-01-28T03:56:11;26.30;;;20.33;;
9657;SDS011;4867;48.112;11.622;2023-01-28T03:58:45;25.97;;;20.17;;
9657;SDS011;4867;48.112;11.622;2023-01-28T04:01:19;24.27;;;19.03;;
9657;SDS011;4867;48.112;11.622;2023-01-28T04:03:47;23.53;;;19.17;;
9657;SDS011;4867;48.112;11.622;2023-01-28T04:06:20;25.47;;;20.57;;
9657;SDS011;4867;48.112;11.622;2023-01-28T04:08:57;25.80;;;19.87;;
9657;SDS011;4867;48.112;11.622;2023-01-28T04:11:31;25.27;;;20.17;;
9657;SDS011;4867;48.112;11.622;2023-01-28T04:14:01;27.20;;;20.33;;
9657;SDS011;4867;48.112;11.622;2023-01-28T04:16:41;24.90;;;19.13;;
9657;SDS011;4867;48.112;11.622;2023-01-28T04:19:09;25.83;;;20.23;;
9657;SDS011;4867;48.112;11.622;2023-01-28T04:21:41;24.33;;;19.00;;
9657;SDS011;4867;48.112;11.622;2023-01-28T04:24:09;25.77;;;20.03;;
9657;SDS011;4867;48.112;11.622;2023-01-28T04:26:36;25.57;;;20.43;;
9657;SDS011;4867;48.112;11.622;2023-01-28T04:29:04;25.53;;;20.70;;
9657;SDS011;4867;48.112;11.622;2023-01-28T04:31:33;25.03;;;19.33;;
9657;SDS011;4867;48.112;11.622;2023-01-28T04:34:21;27.07;;;20.60;;
9657;SDS011;4867;48.112;11.622;2023-01-28T04:37:07;27.97;;;21.70;;
9657;SDS011;4867;48.112;11.622;2023-01-28T04:39:44;27.50;;;21.80;;
9657;SDS011;4867;48.112;11.622;2023-01-28T04:42:34;27.27;;;20.30;;
9657;SDS011;4867;48.112;11.622;2023-01-28T04:45:10;29.13;;;22.07;;
9657;SDS011;4867;48.112;11.622;2023-01-28T04:47:54;26.03;;;21.23;;
9657;SDS011;4867;48.112;11.622;2023-01-28T04:50:40;24.27;;;19.57;;
9657;SDS011;4867;48.112;11.622;2023-01-28T04:53:36;26.47;;;21.03;;
9657;SDS011;4867;48.112;11.622;2023-01-28T04:56:22;28.20;;;20.17;;
9657;SDS011;4867;48.112;11.622;2023-01-28T04:58:50;26.30;;;20.40;;
9657;SDS011;4867;48.112;11.622;2023-01-28T05:01:17;25.73;;;19.50;;
9657;SDS011;4867;48.112;11.622;2023-01-28T05:03:45;27.07;;;20.90;;
9657;SDS011;4867;48.112;11.622;2023-01-28T05:06:20;25.57;;;20.40;;
9657;SDS011;4867;48.112;11.622;2023-01-28T05:08:49;27.40;;;20.67;;
9657;SDS011;4867;48.112;11.622;2023-01-28T05:11:17;24.77;;;20.07;;
9657;SDS011;4867;48.112;11.622;2023-01-28T05:13:48;23.60;;;18.57;;
9657;SDS011;4867;48.112;11.622;2023-01-28T05:16:17;24.67;;;19.73;;
9657;SDS011;4867;48.112;11.622;2023-01-28T05:18:44;26.73;;;20.10;;
9657;SDS011;4867;48.112;11.622;2023-01-28T05:21:16;25.37;;;20.13;;
9657;SDS011;4867;48.112;11.622;2023-01-28T05:23:46;26.10;;;20.63;;
9657;SDS011;4867;48.112;11.622;2023-01-28T05:26:14;25.40;;;19.87;;
9657;SDS011;4867;48.112;11.622;2023-01-28T05:28:41;27.90;;;20.67;;
9657;SDS011;4867;48.112;11.622;2023-01-28T05:31:09;26.13;;;19.63;;
9657;SDS011;4867;48.112;11.622;2023-01-28T05:33:37;28.17;;;21.00;;
9657;SDS011;4867;48.112;11.622;2023-01-28T05:36:07;26.97;;;20.67;;
9657;SDS011;4867;48.112;11.622;2023-01-28T05:38:35;26.77;;;20.47;;
9657;SDS011;4867;48.112;11.622;2023-01-28T05:41:02;26.00;;;18.53;;
9657;SDS011;4867;48.112;11.622;2023-01-28T05:43:31;26.93;;;20.20;;
9657;SDS011;4867;48.112;11.622;2023-01-28T05:46:24;25.47;;;19.03;;
9657;SDS011;4867;48.112;11.622;2023-01-28T05:49:15;24.37;;;19.47;;
9657;SDS011;4867;48.112;11.622;2023-01-28T05:52:14;26.17;;;20.27;;
9657;SDS011;4867;48.112;11.622;2023-01-28T05:54:42;22.97;;;18.10;;
9657;SDS011;4867;48.112;11.622;2023-01-28T05:57:10;24.77;;;18.03;;
9657;SDS011;4867;48.112;11.622;2023-01-28T05:59:37;24.33;;;18.90;;
9657;SDS011;4867;48.112;11.622;2023-01-28T06:02:05;25.20;;;19.17;;
9657;SDS011;4867;48.112;11.622;2023-01-28T06:04:32;26.33;;;20.17;;
9657;SDS011;4867;48.112;11.622;2023-01-28T06:07:00;25.37;;;19.80;;
9657;SDS011;4867;48.112;11.622;2023-01-28T06:09:27;24.03;;;18.60;;
9657;SDS011;4867;48.112;11.622;2023-01-28T06:11:55;25.57;;;19.67;;
9657;SDS011;4867;48.112;11.622;2023-01-28T06:14:23;24.17;;;18.43;;
9657;SDS011;4867;48.112;11.622;2023-01-28T06:17:04;25.00;;;19.20;;
9657;SDS011;4867;48.112;11.622;2023-01-28T06:19:42;22.93;;;17.83;;
9657;SDS011;4867;48.112;11.622;2023-01-28T06:22:10;24.57;;;19.63;;
9657;SDS011;4867;48.112;11.622;2023-01-28T06:24:38;25.10;;;18.90;;
9657;SDS011;4867;48.112;11.622;2023-01-28T06:27:05;24.90;;;19.33;;
9657;SDS011;4867;48.112;11.622;2023-01-28T06:29:32;23.73;;;18.40;;
9657;SDS011;4867;48.112;11.622;2023-01-28T06:31:59;24.50;;;19.30;;
9657;SDS011;4867;48.112;11.622;2023-01-28T06:34:27;26.13;;;19.43;;
9657;SDS011;4867;48.112;11.622;2023-01-28T06:36:54;24.73;;;18.33;;
9657;SDS011;4867;48.112;11.622;2023-01-28T06:39:21;23.83;;;18.80;;
9657;SDS011;4867;48.112;11.622;2023-01-28T06:41:49;26.43;;;19.70;;
9657;SDS011;4867;48.112;11.622;2023-01-28T06:44:16;24.77;;;19.47;;
9657;SDS011;4867;48.112;11.622;2023-01-28T06:46:43;25.73;;;19.33;;
9657;SDS011;4867;48.112;11.622;2023-01-28T06:49:11;24.93;;;18.77;;
9657;SDS011;4867;48.112;11.622;2023-01-28T06:51:38;27.97;;;20.70;;
9657;SDS011;4867;48.112;11.622;2023-01-28T06:54:05;25.47;;;20.03;;
9657;SDS011;4867;48.112;11.622;2023-01-28T06:56:32;24.13;;;18.37;;
9657;SDS011;4867;48.112;11.622;2023-01-28T06:59:00;24.43;;;19.13;;
9657;SDS011;4867;48.112;11.622;2023-01-28T07:01:27;24.90;;;19.97;;
9657;SDS011;4867;48.112;11.622;2023-01-28T07:03:54;26.20;;;19.73;;
9657;SDS011;4867;48.112;11.622;2023-01-28T07:06:22;25.20;;;19.90;;
9657;SDS011;4867;48.112;11.622;2023-01-28T07:08:49;22.60;;;18.10;;
9657;SDS011;4867;48.112;11.622;2023-01-28T07:11:16;25.20;;;18.93;;
9657;SDS011;4867;48.112;11.622;2023-01-28T07:13:43;27.17;;;19.80;;
9657;SDS011;4867;48.112;11.622;2023-01-28T07:16:12;23.37;;;18.40;;
9657;SDS011;4867;48.112;11.622;2023-01-28T07:18:39;24.53;;;18.33;;
9657;SDS011;4867;48.112;11.622;2023-01-28T07:21:06;27.60;;;21.33;;
9657;SDS011;4867;48.112;11.622;2023-01-28T07:23:34;24.93;;;19.73;;
9657;SDS011;4867;48.112;11.622;2023-01-28T07:26:02;24.83;;;19.37;;
9657;SDS011;4867;48.112;11.622;2023-01-28T07:28:30;24.83;;;19.37;;
9657;SDS011;4867;48.112;11.622;2023-01-28T07:30:57;24.27;;;19.70;;
9657;SDS011;4867;48.112;11.622;2023-01-28T07:33:24;25.83;;;20.00;;
9657;SDS011;4867;48.112;11.622;2023-01-28T07:35:51;22.80;;;18.37;;
9657;SDS011;4867;48.112;11.622;2023-01-28T07:38:19;25.47;;;20.27;;
9657;SDS011;4867;48.112;11.622;2023-01-28T07:40:46;25.53;;;19.33;;
9657;SDS011;4867;48.112;11.622;2023-01-28T07:43:13;25.43;;;18.93;;
9657;SDS011;4867;48.112;11.622;2023-01-28T07:45:41;28.53;;;20.63;;
9657;SDS011;4867;48.112;11.622;2023-01-28T07:48:09;29.07;;;21.30;;
9657;SDS011;4867;48.112;11.622;2023-01-28T07:50:38;28.57;;;21.13;;
9657;SDS011;4867;48.112;11.622;2023-01-28T07:53:07;28.67;;;20.27;;
9657;SDS011;4867;48.112;11.622;2023-01-28T07:55:36;26.67;;;20.67;;
9657;SDS011;4867;48.112;11.622;2023-01-28T07:58:05;26.40;;;20.27;;
9657;SDS011;4867;48.112;11.622;2023-01-28T08:00:34;28.10;;;21.73;;
9657;SDS011;4867;48.112;11.622;2023-01-28T08:03:04;27.83;;;21.33;;
9657;SDS011;4867;48.112;11.622;2023-01-28T08:05:48;27.97;;;20.77;;
9657;SDS011;4867;48.112;11.622;2023-01-28T08:08:17;27.93;;;20.90;;
9657;SDS011;4867;48.112;11.622;2023-01-28T08:10:45;27.33;;;21.10;;
9657;SDS011;4867;48.112;11.622;2023-01-28T08:13:12;28.50;;;21.90;;
9657;SDS011;4867;48.112;11.622;2023-01-28T08:15:41;27.07;;;20.13;;
9657;SDS011;4867;48.112;11.622;2023-01-28T08:18:10;26.93;;;20.10;;
9657;SDS011;4867;48.112;11.622;2023-01-28T08:20:39;22.40;;;18.37;;
9657;SDS011;4867;48.112;11.622;2023-01-28T08:23:12;24.17;;;19.03;;
9657;SDS011;4867;48.112;11.622;2023-01-28T08:25:42;26.63;;;20.80;;
9657;SDS011;4867;48.112;11.622;2023-01-28T08:28:10;23.70;;;18.47;;
9657;SDS011;4867;48.112;11.622;2023-01-28T08:30:38;25.27;;;18.77;;
9657;SDS011;4867;48.112;11.622;2023-01-28T08:33:06;24.03;;;19.03;;
9657;SDS011;4867;48.112;11.622;2023-01-28T08:35:35;26.20;;;20.23;;
9657;SDS011;4867;48.112;11.622;2023-01-28T08:38:03;25.93;;;19.23;;
9657;SDS011;4867;48.112;11.622;2023-01-28T08:40:31;26.53;;;19.87;;
9657;SDS011;4867;48.112;11.622;2023-01-28T08:42:59;26.70;;;20.97;;
9657;SDS011;4867;48.112;11.622;2023-01-28T08:45:26;26.90;;;19.50;;
9657;SDS011;4867;48.112;11.622;2023-01-28T08:48:01;26.50;;;19.30;;
9657;SDS011;4867;48.112;11.622;2023-01-28T08:50:33;23.93;;;18.93;;
9657;SDS011;4867;48.112;11.622;2023-01-28T08:53:03;24.47;;;18.63;;
9657;SDS011;4867;48.112;11.622;2023-01-28T08:55:32;21.10;;;17.47;;
9657;SDS011;4867;48.112;11.622;2023-01-28T08:58:04;22.70;;;17.67;;
9657;SDS011;4867;48.112;11.622;2023-01-28T09:00:33;27.27;;;19.70;;
9657;SDS011;4867;48.112;11.622;2023-01-28T09:03:01;26.27;;;18.93;;
9657;SDS011;4867;48.112;11.622;2023-01-28T09:05:32;23.73;;;19.13;;
9657;SDS011;4867;48.112;11.622;2023-01-28T09:08:01;26.43;;;20.20;;
9657;SDS011;4867;48.112;11.622;2023-01-28T09:10:32;23.77;;;19.07;;
9657;SDS011;4867;48.112;11.622;2023-01-28T09:13:04;24.43;;;19.30;;
9657;SDS011;4867;48.112;11.622;2023-01-28T09:15:35;24.90;;;18.50;;
9657;SDS011;4867;48.112;11.622;2023-01-28T09:18:03;28.93;;;21.13;;
9657;SDS011;4867;48.112;11.622;2023-01-28T09:20:31;24.50;;;19.47;;
9657;SDS011;4867;48.112;11.622;2023-01-28T09:22:59;23.57;;;18.03;;
9657;SDS011;4867;48.112;11.622;2023-01-28T09:25:27;23.03;;;18.33;;
9657;SDS011;4867;48.112;11.622;2023-01-28T09:27:55;23.93;;;18.30;;
9657;SDS011;4867;48.112;11.622;2023-01-28T09:30:23;24.60;;;18.83;;
9657;SDS011;4867;48.112;11.622;2023-01-28T09:32:51;25.00;;;18.73;;
9657;SDS011;4867;48.112;11.622;2023-01-28T09:35:19;22.07;;;18.07;;
9657;SDS011;4867;48.112;11.622;2023-01-28T09:37:47;22.93;;;17.97;;
9657;SDS011;4867;48.112;11.622;2023-01-28T09:40:16;23.30;;;18.10;;
9657;SDS011;4867;48.112;11.622;2023-01-28T09:42:58;21.83;;;17.73;;
9657;SDS011;4867;48.112;11.622;2023-01-28T09:45:47;22.77;;;18.20;;
9657;SDS011;4867;48.112;11.622;2023-01-28T09:48:17;23.40;;;17.80;;
9657;SDS011;4867;48.112;11.622;2023-01-28T09:50:51;23.33;;;18.30;;
9657;SDS011;4867;48.112;11.622;2023-01-28T09:53:24;24.70;;;18.83;;
9657;SDS011;4867;48.112;11.622;2023-01-28T09:56:03;22.47;;;17.57;;
9657;SDS011;4867;48.112;11.622;2023-01-28T09:58:35;22.57;;;18.00;;
9657;SDS011;4867;48.112;11.622;2023-01-28T10:14:28;20.03;;;16.77;;
9657;SDS011;4867;48.112;11.622;2023-01-28T10:17:10;21.80;;;17.77;;
9657;SDS011;4867;48.112;11.622;2023-01-28T10:19:49;20.00;;;16.70;;
9657;SDS011;4867;48.112;11.622;2023-01-28T10:22:26;21.83;;;16.70;;
9657;SDS011;4867;48.112;11.622;2023-01-28T10:24:59;20.60;;;17.20;;
9657;SDS011;4867;48.112;11.622;2023-01-28T10:27:33;19.30;;;15.93;;
9657;SDS011;4867;48.112;11.622;2023-01-28T10:30:36;18.60;;;15.87;;
9657;SDS011;4867;48.112;11.622;2023-01-28T10:33:02;18.33;;;15.47;;
9657;SDS011;4867;48.112;11.622;2023-01-28T10:35:50;20.50;;;16.67;;
9657;SDS011;4867;48.112;11.622;2023-01-28T10:38:19;20.97;;;17.10;;
9657;SDS011;4867;48.112;11.622;2023-01-28T10:40:49;19.70;;;16.97;;
9657;SDS011;4867;48.112;11.622;2023-01-28T10:43:20;19.37;;;15.30;;
9657;SDS011;4867;48.112;11.622;2023-01-28T10:46:06;19.30;;;15.60;;
9657;SDS011;4867;48.112;11.622;2023-01-28T10:48:45;19.30;;;16.27;;
9657;SDS011;4867;48.112;11.622;2023-01-28T10:51:28;19.93;;;17.40;;
9657;SDS011;4867;48.112;11.622;2023-01-28T10:53:57;19.37;;;16.17;;
9657;SDS011;4867;48.112;11.622;2023-01-28T10:56:25;19.83;;;16.37;;
9657;SDS011;4867;48.112;11.622;2023-01-28T10:59:02;18.63;;;16.60;;
9657;SDS011;4867;48.112;11.622;2023-01-28T11:01:39;20.03;;;16.73;;
9657;SDS011;4867;48.112;11.622;2023-01-28T11:04:16;19.00;;;16.10;;
9657;SDS011;4867;48.112;11.622;2023-01-28T11:07:03;18.67;;;15.77;;
9657;SDS011;4867;48.112;11.622;2023-01-28T11:09:32;18.97;;;15.93;;
9657;SDS011;4867;48.112;11.622;2023-01-28T11:12:11;18.13;;;16.07;;
9657;SDS011;4867;48.112;11.622;2023-01-28T11:14:50;18.20;;;15.80;;
9657;SDS011;4867;48.112;11.622;2023-01-28T11:17:21;17.90;;;15.60;;
9657;SDS011;4867;48.112;11.622;2023-01-28T11:19:55;19.00;;;15.90;;
9657;SDS011;4867;48.112;11.622;2023-01-28T11:22:30;19.67;;;16.03;;
9657;SDS011;4867;48.112;11.622;2023-01-28T11:25:02;19.20;;;16.63;;
9657;SDS011;4867;48.112;11.622;2023-01-28T11:27:39;20.00;;;16.40;;
9657;SDS011;4867;48.112;11.622;2023-01-28T11:30:15;19.73;;;16.07;;
9657;SDS011;4867;48.112;11.622;2023-01-28T11:32:59;17.50;;;14.83;;
9657;SDS011;4867;48.112;11.622;2023-01-28T11:35:29;16.53;;;13.80;;
9657;SDS011;4867;48.112;11.622;2023-01-28T11:37:57;17.73;;;15.13;;
9657;SDS011;4867;48.112;11.622;2023-01-28T11:40:26;17.03;;;14.80;;
9657;SDS011;4867;48.112;11.622;2023-01-28T11:42:54;18.60;;;15.97;;
9657;SDS011;4867;48.112;11.622;2023-01-28T11:50:53;18.03;;;14.73;;
9657;SDS011;4867;48.112;11.622;2023-01-28T11:56:20;15.97;;;13.77;;
9657;SDS011;4867;48.112;11.622;2023-01-28T11:59:41;16.30;;;14.03;;
9657;SDS011;4867;48.112;11.622;2023-01-28T12:10:05;13.33;;;11.97;;
9657;SDS011;4867;48.112;11.622;2023-01-28T12:12:52;13.77;;;11.77;;
9657;SDS011;4867;48.112;11.622;2023-01-28T12:21:57;14.73;;;11.80;;
9657;SDS011;4867;48.112;11.622;2023-01-28T12:24:50;13.83;;;11.77;;
9657;SDS011;4867;48.112;11.622;2023-01-28T12:27:45;13.37;;;11.10;;
9657;SDS011;4867;48.112;11.622;2023-01-28T12:41:46;13.00;;;11.60;;
9657;SDS011;4867;48.112;11.622;2023-01-28T12:44:23;14.13;;;12.27;;
9657;SDS011;4867;48.112;11.622;2023-01-28T12:47:01;12.87;;;11.23;;
9657;SDS011;4867;48.112;11.622;2023-01-28T12:52:14;13.97;;;12.37;;
9657;SDS011;4867;48.112;11.622;2023-01-28T12:54:58;15.57;;;12.67;;
9657;SDS011;4867;48.112;11.622;2023-01-28T12:57:27;15.10;;;13.50;;
9657;SDS011;4867;48.112;11.622;2023-01-28T13:02:32;17.83;;;13.00;;
9657;SDS011;4867;48.112;11.622;2023-01-28T13:05:10;16.37;;;13.20;;
9657;SDS011;4867;48.112;11.622;2023-01-28T13:07:46;15.67;;;13.77;;
9657;SDS011;4867;48.112;11.622;2023-01-28T13:12:59;14.90;;;13.30;;
9657;SDS011;4867;48.112;11.622;2023-01-28T13:15:27;15.77;;;13.50;;
9657;SDS011;4867;48.112;11.622;2023-01-28T13:29:05;16.10;;;14.10;;
9657;SDS011;4867;48.112;11.622;2023-01-28T13:31:46;16.23;;;13.07;;
9657;SDS011;4867;48.112;11.622;2023-01-28T13:39:33;18.20;;;14.80;;
9657;SDS011;4867;48.112;11.622;2023-01-28T13:42:09;17.67;;;14.17;;
9657;SDS011;4867;48.112;11.622;2023-01-28T13:44:48;15.67;;;12.63;;
9657;SDS011;4867;48.112;11.622;2023-01-28T13:49:54;13.47;;;11.83;;
9657;SDS011;4867;48.112;11.622;2023-01-28T13:52:35;15.00;;;13.13;;
9657;SDS011;4867;48.112;11.622;2023-01-28T13:55:36;14.23;;;11.97;;
9657;SDS011;4867;48.112;11.622;2023-01-28T14:11:53;13.00;;;10.90;;
9657;SDS011;4867;48.112;11.622;2023-01-28T14:17:49;13.90;;;11.27;;
9657;SDS011;4867;48.112;11.622;2023-01-28T14:20:20;14.03;;;11.43;;
9657;SDS011;4867;48.112;11.622;2023-01-28T14:22:58;13.57;;;11.53;;
9657;SDS011;4867;48.112;11.622;2023-01-28T14:29:01;14.07;;;11.70;;
9657;SDS011;4867;48.112;11.622;2023-01-28T14:31:05;16.80;;;13.07;;
9657;SDS011;4867;48.112;11.622;2023-01-28T14:33:36;16.27;;;14.03;;
9657;SDS011;4867;48.112;11.622;2023-01-28T14:36:04;17.17;;;13.97;;
9657;SDS011;4867;48.112;11.622;2023-01-28T14:38:35;18.83;;;14.10;;
9657;SDS011;4867;48.112;11.622;2023-01-28T14:41:06;18.23;;;14.23;;
9657;SDS011;4867;48.112;11.622;2023-01-28T14:43:35;17.53;;;13.93;;
9657;SDS011;4867;48.112;11.622;2023-01-28T14:54:32;16.47;;;13.53;;
9657;SDS011;4867;48.112;11.622;2023-01-28T14:57:19;16.80;;;13.97;;
9657;SDS011;4867;48.112;11.622;2023-01-28T14:59:54;15.47;;;12.23;;
9657;SDS011;4867;48.112;11.622;2023-01-28T15:02:28;17.30;;;13.47;;
9657;SDS011;4867;48.112;11.622;2023-01-28T15:05:12;16.40;;;13.63;;
9657;SDS011;4867;48.112;11.622;2023-01-28T15:07:46;17.27;;;13.80;;
9657;SDS011;4867;48.112;11.622;2023-01-28T15:10:16;14.70;;;12.57;;
9657;SDS011;4867;48.112;11.622;2023-01-28T15:12:53;15.07;;;12.83;;
9657;SDS011;4867;48.112;11.622;2023-01-28T15:15:35;14.50;;;12.67;;
9657;SDS011;4867;48.112;11.622;2023-01-28T15:18:11;15.70;;;13.23;;
9657;SDS011;4867;48.112;11.622;2023-01-28T15:20:46;14.97;;;12.63;;
9657;SDS011;4867;48.112;11.622;2023-01-28T15:23:15;15.43;;;12.87;;
9657;SDS011;4867;48.112;11.622;2023-01-28T15:25:51;13.40;;;12.00;;
9657;SDS011;4867;48.112;11.622;2023-01-28T15:28:27;16.13;;;12.63;;
9657;SDS011;4867;48.112;11.622;2023-01-28T15:30:57;14.77;;;12.97;;
9657;SDS011;4867;48.112;11.622;2023-01-28T15:33:25;17.20;;;13.90;;
9657;SDS011;4867;48.112;11.622;2023-01-28T15:35:54;13.40;;;11.93;;
9657;SDS011;4867;48.112;11.622;2023-01-28T15:38:24;15.03;;;12.63;;
9657;SDS011;4867;48.112;11.622;2023-01-28T15:40:54;13.80;;;11.57;;
9657;SDS011;4867;48.112;11.622;2023-01-28T15:43:32;14.93;;;12.20;;
9657;SDS011;4867;48.112;11.622;2023-01-28T15:46:02;13.27;;;11.17;;
9657;SDS011;4867;48.112;11.622;2023-01-28T15:48:35;14.67;;;11.77;;
9657;SDS011;4867;48.112;11.622;2023-01-28T15:51:03;15.67;;;12.83;;
9657;SDS011;4867;48.112;11.622;2023-01-28T15:53:42;15.40;;;13.07;;
9657;SDS011;4867;48.112;11.622;2023-01-28T15:56:13;15.50;;;12.70;;
9657;SDS011;4867;48.112;11.622;2023-01-28T15:58:41;16.40;;;12.67;;
9657;SDS011;4867;48.112;11.622;2023-01-28T16:03:36;13.53;;;12.00;;
9657;SDS011;4867;48.112;11.622;2023-01-28T16:08:45;15.87;;;12.87;;
9657;SDS011;4867;48.112;11.622;2023-01-28T16:11:20;16.53;;;12.93;;
9657;SDS011;4867;48.112;11.622;2023-01-28T16:13:57;15.93;;;12.27;;
9657;SDS011;4867;48.112;11.622;2023-01-28T16:16:35;15.60;;;12.53;;
9657;SDS011;4867;48.112;11.622;2023-01-28T16:19:04;15.13;;;12.50;;
9657;SDS011;4867;48.112;11.622;2023-01-28T16:21:33;15.90;;;13.17;;
9657;SDS011;4867;48.112;11.622;2023-01-28T16:24:21;19.20;;;16.50;;
9657;SDS011;4867;48.112;11.622;2023-01-28T16:27:03;16.47;;;13.30;;
9657;SDS011;4867;48.112;11.622;2023-01-28T16:29:35;18.77;;;14.97;;
9657;SDS011;4867;48.112;11.622;2023-01-28T16:32:02;15.67;;;12.73;;
9657;SDS011;4867;48.112;11.622;2023-01-28T16:34:30;15.47;;;13.27;;
9657;SDS011;4867;48.112;11.622;2023-01-28T16:36:57;17.30;;;13.30;;
9657;SDS011;4867;48.112;11.622;2023-01-28T16:39:25;16.27;;;12.43;;
9657;SDS011;4867;48.112;11.622;2023-01-28T16:41:53;17.20;;;13.30;;
9657;SDS011;4867;48.112;11.622;2023-01-28T16:44:22;16.53;;;13.27;;
9657;SDS011;4867;48.112;11.622;2023-01-28T16:46:49;19.37;;;15.47;;
9657;SDS011;4867;48.112;11.622;2023-01-28T16:49:17;16.07;;;13.63;;
9657;SDS011;4867;48.112;11.622;2023-01-28T16:51:44;18.97;;;14.30;;
9657;SDS011;4867;48.112;11.622;2023-01-28T16:54:12;19.77;;;16.80;;
9657;SDS011;4867;48.112;11.622;2023-01-28T16:56:41;18.00;;;14.10;;
9657;SDS011;4867;48.112;11.622;2023-01-28T16:59:13;17.90;;;12.43;;
9657;SDS011;4867;48.112;11.622;2023-01-28T17:01:42;16.67;;;13.33;;
9657;SDS011;4867;48.112;11.622;2023-01-28T17:04:10;17.40;;;14.10;;
9657;SDS011;4867;48.112;11.622;2023-01-28T17:06:39;18.00;;;14.13;;
9657;SDS011;4867;48.112;11.622;2023-01-28T17:09:09;17.77;;;14.27;;
9657;SDS011;4867;48.112;11.622;2023-01-28T17:11:37;18.70;;;13.10;;
9657;SDS011;4867;48.112;11.622;2023-01-28T17:14:06;16.47;;;12.67;;
9657;SDS011;4867;48.112;11.622;2023-01-28T17:16:34;17.50;;;13.60;;
9657;SDS011;4867;48.112;11.622;2023-01-28T17:19:01;18.73;;;13.83;;